sensor_id;sensor_type;location;lat;lon;timestamp;P1;durP1;ratioP1;P2;durP2;ratioP2
36351;SDS011;22382;44.768;17.206;2023-04-01T00:00:58;10.65;;;2.20;;
36351;SDS011;22382;44.768;17.206;2023-04-01T00:03:26;9.10;;;2.90;;
36351;SDS011;22382;44.768;17.206;2023-04-01T00:05:55;8.38;;;3.03;;
36351;SDS011;22382;44.768;17.206;2023-04-01T00:08:24;10.18;;;3.25;;
36351;SDS011;22382;44.768;17.206;2023-04-01T00:10:52;12.52;;;3.70;;
36351;SDS011;22382;44.768;17.206;2023-04-01T00:13:20;12.23;;;4.25;;
36351;SDS011;22382;44.768;17.206;2023-04-01T00:15:48;13.05;;;4.15;;
36351;SDS011;22382;44.768;17.206;2023-04-01T00:18:15;8.65;;;4.15;;
36351;SDS011;22382;44.768;17.206;2023-04-01T00:20:43;6.97;;;3.83;;
36351;SDS011;22382;44.768;17.206;2023-04-01T00:23:15;9.52;;;4.72;;
36351;SDS011;22382;44.768;17.206;2023-04-01T00:25:43;12.55;;;4.90;;
36351;SDS011;22382;44.768;17.206;2023-04-01T00:28:16;17.73;;;8.80;;
36351;SDS011;22382;44.768;17.206;2023-04-01T00:30:45;14.18;;;8.15;;
36351;SDS011;22382;44.768;17.206;2023-04-01T00:33:12;13.88;;;6.90;;
36351;SDS011;22382;44.768;17.206;2023-04-01T00:35:40;12.90;;;5.25;;
36351;SDS011;22382;44.768;17.206;2023-04-01T00:38:08;12.15;;;5.38;;
36351;SDS011;22382;44.768;17.206;2023-04-01T00:40:38;12.00;;;5.25;;
36351;SDS011;22382;44.768;17.206;2023-04-01T00:43:14;7.95;;;4.07;;
36351;SDS011;22382;44.768;17.206;2023-04-01T00:45:47;9.77;;;4.45;;
36351;SDS011;22382;44.768;17.206;2023-04-01T00:51:16;10.13;;;4.65;;
36351;SDS011;22382;44.768;17.206;2023-04-01T00:53:47;13.25;;;4.57;;
36351;SDS011;22382;44.768;17.206;2023-04-01T00:58:57;9.48;;;5.15;;
36351;SDS011;22382;44.768;17.206;2023-04-01T01:01:28;10.20;;;3.95;;
36351;SDS011;22382;44.768;17.206;2023-04-01T01:03:57;10.43;;;4.22;;
36351;SDS011;22382;44.768;17.206;2023-04-01T01:06:35;13.48;;;4.80;;
36351;SDS011;22382;44.768;17.206;2023-04-01T01:09:29;11.43;;;4.88;;
36351;SDS011;22382;44.768;17.206;2023-04-01T01:12:20;9.55;;;4.68;;
36351;SDS011;22382;44.768;17.206;2023-04-01T01:26:09;12.02;;;6.10;;
36351;SDS011;22382;44.768;17.206;2023-04-01T01:28:49;8.18;;;4.63;;
36351;SDS011;22382;44.768;17.206;2023-04-01T01:31:45;10.07;;;4.78;;
36351;SDS011;22382;44.768;17.206;2023-04-01T01:37:32;5.93;;;3.60;;
36351;SDS011;22382;44.768;17.206;2023-04-01T01:40:00;4.80;;;3.20;;
36351;SDS011;22382;44.768;17.206;2023-04-01T01:42:32;8.52;;;3.95;;
36351;SDS011;22382;44.768;17.206;2023-04-01T01:45:02;9.25;;;4.03;;
36351;SDS011;22382;44.768;17.206;2023-04-01T01:47:32;6.80;;;3.20;;
36351;SDS011;22382;44.768;17.206;2023-04-01T01:50:01;4.85;;;2.78;;
36351;SDS011;22382;44.768;17.206;2023-04-01T01:52:30;5.38;;;3.13;;
36351;SDS011;22382;44.768;17.206;2023-04-01T01:54:57;6.85;;;3.17;;
36351;SDS011;22382;44.768;17.206;2023-04-01T01:57:34;5.43;;;2.92;;
36351;SDS011;22382;44.768;17.206;2023-04-01T02:00:06;5.30;;;2.80;;
36351;SDS011;22382;44.768;17.206;2023-04-01T02:02:43;9.10;;;4.25;;
36351;SDS011;22382;44.768;17.206;2023-04-01T02:05:19;6.07;;;2.97;;
36351;SDS011;22382;44.768;17.206;2023-04-01T02:08:02;6.65;;;2.50;;
36351;SDS011;22382;44.768;17.206;2023-04-01T02:10:39;5.80;;;2.70;;
36351;SDS011;22382;44.768;17.206;2023-04-01T02:13:13;5.50;;;3.05;;
36351;SDS011;22382;44.768;17.206;2023-04-01T02:15:46;9.68;;;3.25;;
36351;SDS011;22382;44.768;17.206;2023-04-01T02:18:15;4.53;;;3.10;;
36351;SDS011;22382;44.768;17.206;2023-04-01T02:20:45;5.72;;;3.25;;
36351;SDS011;22382;44.768;17.206;2023-04-01T02:23:13;5.40;;;2.90;;
36351;SDS011;22382;44.768;17.206;2023-04-01T02:25:40;4.50;;;2.92;;
36351;SDS011;22382;44.768;17.206;2023-04-01T02:28:10;7.90;;;3.10;;
36351;SDS011;22382;44.768;17.206;2023-04-01T02:30:39;5.97;;;2.90;;
36351;SDS011;22382;44.768;17.206;2023-04-01T02:33:08;7.80;;;3.75;;
36351;SDS011;22382;44.768;17.206;2023-04-01T02:35:36;5.82;;;3.15;;
36351;SDS011;22382;44.768;17.206;2023-04-01T02:38:04;5.88;;;3.72;;
36351;SDS011;22382;44.768;17.206;2023-04-01T02:40:45;6.88;;;4.43;;
36351;SDS011;22382;44.768;17.206;2023-04-01T02:43:17;9.13;;;5.07;;
36351;SDS011;22382;44.768;17.206;2023-04-01T02:45:46;13.45;;;8.68;;
36351;SDS011;22382;44.768;17.206;2023-04-01T02:48:13;12.70;;;7.70;;
36351;SDS011;22382;44.768;17.206;2023-04-01T02:50:40;11.27;;;7.22;;
36351;SDS011;22382;44.768;17.206;2023-04-01T02:53:07;8.82;;;5.82;;
36351;SDS011;22382;44.768;17.206;2023-04-01T02:55:35;7.80;;;5.80;;
36351;SDS011;22382;44.768;17.206;2023-04-01T02:58:02;14.35;;;5.75;;
36351;SDS011;22382;44.768;17.206;2023-04-01T03:00:29;17.60;;;5.80;;
36351;SDS011;22382;44.768;17.206;2023-04-01T03:02:56;9.25;;;5.50;;
36351;SDS011;22382;44.768;17.206;2023-04-01T03:05:23;7.65;;;4.82;;
36351;SDS011;22382;44.768;17.206;2023-04-01T03:07:51;5.05;;;4.00;;
36351;SDS011;22382;44.768;17.206;2023-04-01T03:10:18;8.70;;;4.15;;
36351;SDS011;22382;44.768;17.206;2023-04-01T03:12:45;7.20;;;4.38;;
36351;SDS011;22382;44.768;17.206;2023-04-01T03:15:13;9.13;;;4.97;;
36351;SDS011;22382;44.768;17.206;2023-04-01T03:17:41;7.05;;;4.38;;
36351;SDS011;22382;44.768;17.206;2023-04-01T03:20:09;4.72;;;3.55;;
36351;SDS011;22382;44.768;17.206;2023-04-01T03:22:37;5.75;;;2.75;;
36351;SDS011;22382;44.768;17.206;2023-04-01T03:25:08;2.08;;;1.50;;
36351;SDS011;22382;44.768;17.206;2023-04-01T03:27:36;2.05;;;1.60;;
36351;SDS011;22382;44.768;17.206;2023-04-01T03:30:04;4.22;;;1.52;;
36351;SDS011;22382;44.768;17.206;2023-04-01T03:32:32;2.50;;;1.40;;
36351;SDS011;22382;44.768;17.206;2023-04-01T03:35:00;2.40;;;1.40;;
36351;SDS011;22382;44.768;17.206;2023-04-01T03:37:27;2.17;;;1.40;;
36351;SDS011;22382;44.768;17.206;2023-04-01T03:39:54;4.32;;;2.38;;
36351;SDS011;22382;44.768;17.206;2023-04-01T03:42:21;4.90;;;2.33;;
36351;SDS011;22382;44.768;17.206;2023-04-01T03:44:48;2.45;;;1.80;;
36351;SDS011;22382;44.768;17.206;2023-04-01T03:47:16;5.82;;;2.35;;
36351;SDS011;22382;44.768;17.206;2023-04-01T03:49:43;2.60;;;1.80;;
36351;SDS011;22382;44.768;17.206;2023-04-01T03:52:10;3.28;;;2.10;;
36351;SDS011;22382;44.768;17.206;2023-04-01T03:54:37;3.83;;;1.58;;
36351;SDS011;22382;44.768;17.206;2023-04-01T03:57:05;2.30;;;1.25;;
36351;SDS011;22382;44.768;17.206;2023-04-01T03:59:32;4.32;;;1.65;;
36351;SDS011;22382;44.768;17.206;2023-04-01T04:02:00;1.42;;;0.70;;
36351;SDS011;22382;44.768;17.206;2023-04-01T04:04:27;1.13;;;0.63;;
36351;SDS011;22382;44.768;17.206;2023-04-01T04:06:54;0.93;;;0.40;;
36351;SDS011;22382;44.768;17.206;2023-04-01T04:09:22;0.82;;;0.40;;
36351;SDS011;22382;44.768;17.206;2023-04-01T04:11:49;1.95;;;0.70;;
36351;SDS011;22382;44.768;17.206;2023-04-01T04:14:17;1.38;;;0.80;;
36351;SDS011;22382;44.768;17.206;2023-04-01T04:16:44;1.13;;;0.63;;
36351;SDS011;22382;44.768;17.206;2023-04-01T04:19:11;1.13;;;0.70;;
36351;SDS011;22382;44.768;17.206;2023-04-01T04:21:39;2.30;;;1.20;;
36351;SDS011;22382;44.768;17.206;2023-04-01T04:24:07;3.03;;;1.27;;
36351;SDS011;22382;44.768;17.206;2023-04-01T04:26:35;5.82;;;2.50;;
36351;SDS011;22382;44.768;17.206;2023-04-01T04:29:02;3.08;;;1.38;;
36351;SDS011;22382;44.768;17.206;2023-04-01T04:31:29;2.10;;;1.00;;
36351;SDS011;22382;44.768;17.206;2023-04-01T04:33:58;0.70;;;0.40;;
36351;SDS011;22382;44.768;17.206;2023-04-01T04:36:27;1.17;;;0.70;;
36351;SDS011;22382;44.768;17.206;2023-04-01T04:38:54;1.30;;;0.60;;
36351;SDS011;22382;44.768;17.206;2023-04-01T04:41:21;1.55;;;0.57;;
36351;SDS011;22382;44.768;17.206;2023-04-01T04:43:49;1.17;;;0.60;;
36351;SDS011;22382;44.768;17.206;2023-04-01T04:46:19;0.90;;;0.40;;
36351;SDS011;22382;44.768;17.206;2023-04-01T04:48:46;0.57;;;0.40;;
36351;SDS011;22382;44.768;17.206;2023-04-01T04:51:18;1.15;;;0.50;;
36351;SDS011;22382;44.768;17.206;2023-04-01T04:53:46;0.60;;;0.50;;
36351;SDS011;22382;44.768;17.206;2023-04-01T04:56:20;1.40;;;0.75;;
36351;SDS011;22382;44.768;17.206;2023-04-01T04:58:48;1.10;;;0.63;;
36351;SDS011;22382;44.768;17.206;2023-04-01T05:01:16;0.98;;;0.65;;
36351;SDS011;22382;44.768;17.206;2023-04-01T05:03:44;1.15;;;0.60;;
36351;SDS011;22382;44.768;17.206;2023-04-01T05:06:13;2.15;;;0.80;;
36351;SDS011;22382;44.768;17.206;2023-04-01T05:08:42;3.22;;;0.77;;
36351;SDS011;22382;44.768;17.206;2023-04-01T05:11:17;1.38;;;0.80;;
36351;SDS011;22382;44.768;17.206;2023-04-01T05:13:46;3.75;;;1.17;;
36351;SDS011;22382;44.768;17.206;2023-04-01T05:16:15;3.30;;;1.80;;
36351;SDS011;22382;44.768;17.206;2023-04-01T05:18:43;2.83;;;1.50;;
36351;SDS011;22382;44.768;17.206;2023-04-01T05:21:12;4.30;;;2.05;;
36351;SDS011;22382;44.768;17.206;2023-04-01T05:23:41;2.63;;;1.67;;
36351;SDS011;22382;44.768;17.206;2023-04-01T05:26:10;3.55;;;1.92;;
36351;SDS011;22382;44.768;17.206;2023-04-01T05:28:38;3.53;;;1.83;;
36351;SDS011;22382;44.768;17.206;2023-04-01T05:31:06;2.80;;;1.55;;
36351;SDS011;22382;44.768;17.206;2023-04-01T05:33:34;4.18;;;1.40;;
36351;SDS011;22382;44.768;17.206;2023-04-01T05:36:05;1.80;;;1.23;;
36351;SDS011;22382;44.768;17.206;2023-04-01T05:38:40;2.50;;;1.33;;
36351;SDS011;22382;44.768;17.206;2023-04-01T05:41:08;2.47;;;0.95;;
36351;SDS011;22382;44.768;17.206;2023-04-01T05:43:36;1.75;;;1.20;;
36351;SDS011;22382;44.768;17.206;2023-04-01T05:46:03;1.42;;;0.80;;
36351;SDS011;22382;44.768;17.206;2023-04-01T05:48:32;0.90;;;0.60;;
36351;SDS011;22382;44.768;17.206;2023-04-01T05:51:01;2.42;;;0.82;;
36351;SDS011;22382;44.768;17.206;2023-04-01T05:53:29;1.65;;;1.15;;
36351;SDS011;22382;44.768;17.206;2023-04-01T05:55:57;3.53;;;1.17;;
36351;SDS011;22382;44.768;17.206;2023-04-01T05:58:29;3.57;;;1.93;;
36351;SDS011;22382;44.768;17.206;2023-04-01T06:01:00;2.75;;;1.42;;
36351;SDS011;22382;44.768;17.206;2023-04-01T06:03:39;3.83;;;1.80;;
36351;SDS011;22382;44.768;17.206;2023-04-01T06:06:25;2.58;;;1.80;;
36351;SDS011;22382;44.768;17.206;2023-04-01T06:08:53;8.00;;;3.25;;
36351;SDS011;22382;44.768;17.206;2023-04-01T06:25:18;8.77;;;5.57;;
36351;SDS011;22382;44.768;17.206;2023-04-01T06:28:05;10.55;;;5.70;;
36351;SDS011;22382;44.768;17.206;2023-04-01T06:35:56;11.60;;;6.20;;
36351;SDS011;22382;44.768;17.206;2023-04-01T06:42:40;9.95;;;7.13;;
36351;SDS011;22382;44.768;17.206;2023-04-01T06:47:34;19.33;;;11.77;;
36351;SDS011;22382;44.768;17.206;2023-04-01T06:52:47;13.77;;;9.00;;
36351;SDS011;22382;44.768;17.206;2023-04-01T06:55:32;12.00;;;8.32;;
36351;SDS011;22382;44.768;17.206;2023-04-01T06:58:11;9.52;;;6.60;;
36351;SDS011;22382;44.768;17.206;2023-04-01T07:00:56;10.48;;;7.65;;
36351;SDS011;22382;44.768;17.206;2023-04-01T07:03:29;10.10;;;7.68;;
36351;SDS011;22382;44.768;17.206;2023-04-01T07:06:05;9.63;;;7.85;;
36351;SDS011;22382;44.768;17.206;2023-04-01T07:09:08;11.82;;;7.13;;
36351;SDS011;22382;44.768;17.206;2023-04-01T07:11:42;10.60;;;7.13;;
36351;SDS011;22382;44.768;17.206;2023-04-01T07:17:35;9.80;;;7.43;;
36351;SDS011;22382;44.768;17.206;2023-04-01T07:19:51;9.80;;;6.70;;
36351;SDS011;22382;44.768;17.206;2023-04-01T07:25:01;6.50;;;4.57;;
36351;SDS011;22382;44.768;17.206;2023-04-01T07:27:39;6.45;;;5.03;;
36351;SDS011;22382;44.768;17.206;2023-04-01T07:35:34;5.53;;;2.58;;
36351;SDS011;22382;44.768;17.206;2023-04-01T07:41:16;2.88;;;1.75;;
36351;SDS011;22382;44.768;17.206;2023-04-01T07:57:49;1.63;;;1.00;;
36351;SDS011;22382;44.768;17.206;2023-04-01T08:00:30;4.13;;;2.67;;
36351;SDS011;22382;44.768;17.206;2023-04-01T08:03:35;4.07;;;2.30;;
36351;SDS011;22382;44.768;17.206;2023-04-01T08:06:37;7.05;;;4.05;;
36351;SDS011;22382;44.768;17.206;2023-04-01T08:09:44;4.93;;;3.00;;
36351;SDS011;22382;44.768;17.206;2023-04-01T08:15:27;3.85;;;1.60;;
36351;SDS011;22382;44.768;17.206;2023-04-01T08:21:01;3.00;;;1.70;;
36351;SDS011;22382;44.768;17.206;2023-04-01T08:23:38;2.58;;;1.55;;
36351;SDS011;22382;44.768;17.206;2023-04-01T08:29:03;1.73;;;1.13;;
36351;SDS011;22382;44.768;17.206;2023-04-01T08:34:15;3.97;;;1.88;;
36351;SDS011;22382;44.768;17.206;2023-04-01T08:36:50;3.65;;;1.70;;
36351;SDS011;22382;44.768;17.206;2023-04-01T08:39:44;2.70;;;1.40;;
36351;SDS011;22382;44.768;17.206;2023-04-01T08:45:21;2.72;;;1.95;;
36351;SDS011;22382;44.768;17.206;2023-04-01T08:51:06;2.40;;;2.10;;
36351;SDS011;22382;44.768;17.206;2023-04-01T09:00:32;2.80;;;1.80;;
36351;SDS011;22382;44.768;17.206;2023-04-01T09:16:50;5.15;;;3.60;;
36351;SDS011;22382;44.768;17.206;2023-04-01T09:19:58;4.75;;;2.40;;
36351;SDS011;22382;44.768;17.206;2023-04-01T09:22:37;4.10;;;2.13;;
36351;SDS011;22382;44.768;17.206;2023-04-01T09:30:34;6.10;;;1.65;;
36351;SDS011;22382;44.768;17.206;2023-04-01T09:44:37;1.38;;;0.82;;
36351;SDS011;22382;44.768;17.206;2023-04-01T09:53:53;1.13;;;0.70;;
36351;SDS011;22382;44.768;17.206;2023-04-01T09:56:29;1.40;;;0.50;;
36351;SDS011;22382;44.768;17.206;2023-04-01T10:02:08;1.20;;;0.60;;
36351;SDS011;22382;44.768;17.206;2023-04-01T10:11:11;1.30;;;0.80;;
36351;SDS011;22382;44.768;17.206;2023-04-01T10:21:58;0.65;;;0.40;;
36351;SDS011;22382;44.768;17.206;2023-04-01T10:44:45;1.20;;;0.63;;
36351;SDS011;22382;44.768;17.206;2023-04-01T11:12:33;0.55;;;0.30;;
36351;SDS011;22382;44.768;17.206;2023-04-01T11:21:54;1.70;;;0.75;;
36351;SDS011;22382;44.768;17.206;2023-04-01T11:27:42;0.82;;;0.50;;
36351;SDS011;22382;44.768;17.206;2023-04-01T11:55:11;0.85;;;0.40;;
36351;SDS011;22382;44.768;17.206;2023-04-01T11:58:11;1.48;;;0.38;;
36351;SDS011;22382;44.768;17.206;2023-04-01T12:06:16;1.60;;;0.30;;
36351;SDS011;22382;44.768;17.206;2023-04-01T12:09:10;0.82;;;0.40;;
36351;SDS011;22382;44.768;17.206;2023-04-01T12:14:38;1.23;;;0.32;;
36351;SDS011;22382;44.768;17.206;2023-04-01T12:33:47;2.25;;;0.77;;
36351;SDS011;22382;44.768;17.206;2023-04-01T12:39:56;1.30;;;0.40;;
36351;SDS011;22382;44.768;17.206;2023-04-01T12:42:41;2.15;;;0.35;;
36351;SDS011;22382;44.768;17.206;2023-04-01T12:48:46;1.88;;;1.02;;
36351;SDS011;22382;44.768;17.206;2023-04-01T12:53:46;1.38;;;0.47;;
36351;SDS011;22382;44.768;17.206;2023-04-01T12:56:27;2.42;;;0.50;;
36351;SDS011;22382;44.768;17.206;2023-04-01T13:29:15;2.55;;;0.80;;
36351;SDS011;22382;44.768;17.206;2023-04-01T13:34:35;1.95;;;0.90;;
36351;SDS011;22382;44.768;17.206;2023-04-01T13:45:27;2.15;;;1.23;;
36351;SDS011;22382;44.768;17.206;2023-04-01T13:51:12;4.22;;;1.30;;
36351;SDS011;22382;44.768;17.206;2023-04-01T14:14:18;1.73;;;0.70;;
36351;SDS011;22382;44.768;17.206;2023-04-01T14:25:43;1.38;;;0.65;;
36351;SDS011;22382;44.768;17.206;2023-04-01T14:33:43;1.27;;;0.50;;
36351;SDS011;22382;44.768;17.206;2023-04-01T14:36:43;1.42;;;0.50;;
36351;SDS011;22382;44.768;17.206;2023-04-01T14:48:31;3.00;;;1.65;;
36351;SDS011;22382;44.768;17.206;2023-04-01T14:51:16;1.90;;;0.82;;
36351;SDS011;22382;44.768;17.206;2023-04-01T14:56:49;2.67;;;1.60;;
36351;SDS011;22382;44.768;17.206;2023-04-01T14:59:28;1.70;;;1.08;;
36351;SDS011;22382;44.768;17.206;2023-04-01T15:09:54;2.13;;;1.40;;
36351;SDS011;22382;44.768;17.206;2023-04-01T15:13:04;1.48;;;0.65;;
36351;SDS011;22382;44.768;17.206;2023-04-01T15:18:44;2.53;;;1.35;;
36351;SDS011;22382;44.768;17.206;2023-04-01T15:21:44;3.83;;;1.40;;
36351;SDS011;22382;44.768;17.206;2023-04-01T15:27:37;1.30;;;0.82;;
36351;SDS011;22382;44.768;17.206;2023-04-01T15:33:09;3.70;;;1.45;;
36351;SDS011;22382;44.768;17.206;2023-04-01T15:38:53;1.85;;;1.00;;
36351;SDS011;22382;44.768;17.206;2023-04-01T15:44:01;3.22;;;1.92;;
36351;SDS011;22382;44.768;17.206;2023-04-01T15:46:43;3.72;;;1.52;;
36351;SDS011;22382;44.768;17.206;2023-04-01T15:52:05;1.60;;;1.00;;
36351;SDS011;22382;44.768;17.206;2023-04-01T16:05:41;4.63;;;1.90;;
36351;SDS011;22382;44.768;17.206;2023-04-01T16:08:25;4.63;;;2.05;;
36351;SDS011;22382;44.768;17.206;2023-04-01T16:13:59;3.47;;;2.25;;
36351;SDS011;22382;44.768;17.206;2023-04-01T16:20:12;3.80;;;2.45;;
36351;SDS011;22382;44.768;17.206;2023-04-01T16:22:35;7.03;;;4.40;;
36351;SDS011;22382;44.768;17.206;2023-04-01T16:28:07;9.75;;;6.95;;
36351;SDS011;22382;44.768;17.206;2023-04-01T16:30:54;4.53;;;1.90;;
36351;SDS011;22382;44.768;17.206;2023-04-01T16:34:02;2.30;;;0.45;;
36351;SDS011;22382;44.768;17.206;2023-04-01T16:36:50;3.13;;;1.55;;
36351;SDS011;22382;44.768;17.206;2023-04-01T16:39:33;1.65;;;0.70;;
36351;SDS011;22382;44.768;17.206;2023-04-01T16:47:35;7.68;;;4.63;;
36351;SDS011;22382;44.768;17.206;2023-04-01T16:50:24;11.23;;;5.32;;
36351;SDS011;22382;44.768;17.206;2023-04-01T16:53:02;17.65;;;7.60;;
36351;SDS011;22382;44.768;17.206;2023-04-01T16:55:49;29.05;;;16.83;;
36351;SDS011;22382;44.768;17.206;2023-04-01T16:58:27;27.23;;;18.00;;
36351;SDS011;22382;44.768;17.206;2023-04-01T17:01:20;23.35;;;15.00;;
36351;SDS011;22382;44.768;17.206;2023-04-01T17:04:18;48.78;;;43.33;;
36351;SDS011;22382;44.768;17.206;2023-04-01T17:06:58;13.95;;;9.15;;
36351;SDS011;22382;44.768;17.206;2023-04-01T17:12:44;93.68;;;61.92;;
36351;SDS011;22382;44.768;17.206;2023-04-01T17:15:53;34.35;;;23.13;;
36351;SDS011;22382;44.768;17.206;2023-04-01T17:26:58;7.95;;;5.40;;
36351;SDS011;22382;44.768;17.206;2023-04-01T17:35:35;6.75;;;3.58;;
36351;SDS011;22382;44.768;17.206;2023-04-01T17:41:20;7.57;;;4.60;;
36351;SDS011;22382;44.768;17.206;2023-04-01T17:44:12;6.47;;;3.10;;
36351;SDS011;22382;44.768;17.206;2023-04-01T17:47:21;5.18;;;2.63;;
36351;SDS011;22382;44.768;17.206;2023-04-01T17:52:46;14.43;;;7.35;;
36351;SDS011;22382;44.768;17.206;2023-04-01T17:55:30;18.30;;;8.85;;
36351;SDS011;22382;44.768;17.206;2023-04-01T17:58:10;16.20;;;9.25;;
36351;SDS011;22382;44.768;17.206;2023-04-01T18:12:36;1.98;;;0.90;;
36351;SDS011;22382;44.768;17.206;2023-04-01T18:15:44;2.40;;;1.13;;
36351;SDS011;22382;44.768;17.206;2023-04-01T18:26:40;4.95;;;2.80;;
36351;SDS011;22382;44.768;17.206;2023-04-01T18:29:34;6.88;;;2.60;;
36351;SDS011;22382;44.768;17.206;2023-04-01T18:32:22;3.40;;;1.70;;
36351;SDS011;22382;44.768;17.206;2023-04-01T18:38:11;2.65;;;1.50;;
36351;SDS011;22382;44.768;17.206;2023-04-01T18:40:53;4.47;;;1.65;;
36351;SDS011;22382;44.768;17.206;2023-04-01T18:50:02;3.22;;;1.63;;
36351;SDS011;22382;44.768;17.206;2023-04-01T18:53:00;5.28;;;2.03;;
36351;SDS011;22382;44.768;17.206;2023-04-01T18:55:41;7.65;;;2.72;;
36351;SDS011;22382;44.768;17.206;2023-04-01T18:58:23;6.05;;;2.60;;
36351;SDS011;22382;44.768;17.206;2023-04-01T19:04:24;5.88;;;3.00;;
36351;SDS011;22382;44.768;17.206;2023-04-01T19:06:33;5.13;;;2.50;;
36351;SDS011;22382;44.768;17.206;2023-04-01T19:14:45;4.55;;;2.88;;
36351;SDS011;22382;44.768;17.206;2023-04-01T19:17:31;3.72;;;2.63;;
36351;SDS011;22382;44.768;17.206;2023-04-01T19:25:49;14.93;;;8.52;;
36351;SDS011;22382;44.768;17.206;2023-04-01T19:36:32;8.48;;;5.13;;
36351;SDS011;22382;44.768;17.206;2023-04-01T19:39:15;7.82;;;4.65;;
36351;SDS011;22382;44.768;17.206;2023-04-01T19:50:56;7.65;;;4.70;;
36351;SDS011;22382;44.768;17.206;2023-04-01T19:53:31;8.02;;;4.55;;
36351;SDS011;22382;44.768;17.206;2023-04-01T19:56:21;7.65;;;5.18;;
36351;SDS011;22382;44.768;17.206;2023-04-01T19:58:52;9.10;;;5.05;;
36351;SDS011;22382;44.768;17.206;2023-04-01T20:01:41;8.27;;;4.95;;
36351;SDS011;22382;44.768;17.206;2023-04-01T20:04:42;7.72;;;4.72;;
36351;SDS011;22382;44.768;17.206;2023-04-01T20:15:57;8.73;;;4.73;;
36351;SDS011;22382;44.768;17.206;2023-04-01T20:18:37;7.95;;;5.15;;
36351;SDS011;22382;44.768;17.206;2023-04-01T20:26:35;12.40;;;6.55;;
36351;SDS011;22382;44.768;17.206;2023-04-01T20:31:57;17.40;;;8.07;;
36351;SDS011;22382;44.768;17.206;2023-04-01T20:34:40;23.23;;;10.60;;
36351;SDS011;22382;44.768;17.206;2023-04-01T20:37:40;23.05;;;13.88;;
36351;SDS011;22382;44.768;17.206;2023-04-01T20:40:36;8.32;;;4.70;;
36351;SDS011;22382;44.768;17.206;2023-04-01T20:49:10;8.23;;;4.65;;
36351;SDS011;22382;44.768;17.206;2023-04-01T20:51:54;9.32;;;5.18;;
36351;SDS011;22382;44.768;17.206;2023-04-01T20:54:31;11.38;;;5.35;;
36351;SDS011;22382;44.768;17.206;2023-04-01T20:57:21;8.80;;;5.40;;
36351;SDS011;22382;44.768;17.206;2023-04-01T21:06:02;10.35;;;5.45;;
36351;SDS011;22382;44.768;17.206;2023-04-01T21:22:01;10.63;;;6.22;;
36351;SDS011;22382;44.768;17.206;2023-04-01T21:24:54;13.85;;;7.38;;
36351;SDS011;22382;44.768;17.206;2023-04-01T21:41:58;26.80;;;13.40;;
36351;SDS011;22382;44.768;17.206;2023-04-01T21:44:43;30.52;;;16.23;;
36351;SDS011;22382;44.768;17.206;2023-04-01T21:53:01;33.13;;;18.95;;
36351;SDS011;22382;44.768;17.206;2023-04-01T21:55:56;29.60;;;18.52;;
36351;SDS011;22382;44.768;17.206;2023-04-01T22:10:05;45.80;;;25.25;;
36351;SDS011;22382;44.768;17.206;2023-04-01T22:22:29;36.00;;;20.38;;
36351;SDS011;22382;44.768;17.206;2023-04-01T22:27:46;35.70;;;21.40;;
36351;SDS011;22382;44.768;17.206;2023-04-01T22:30:43;37.95;;;22.65;;
36351;SDS011;22382;44.768;17.206;2023-04-01T22:38:50;52.42;;;30.10;;
36351;SDS011;22382;44.768;17.206;2023-04-01T22:45:01;47.75;;;26.98;;
36351;SDS011;22382;44.768;17.206;2023-04-01T22:53:16;46.78;;;27.42;;
36351;SDS011;22382;44.768;17.206;2023-04-01T22:55:51;46.08;;;25.63;;
36351;SDS011;22382;44.768;17.206;2023-04-01T22:58:40;47.42;;;26.20;;
36351;SDS011;22382;44.768;17.206;2023-04-01T23:01:28;47.13;;;27.23;;
36351;SDS011;22382;44.768;17.206;2023-04-01T23:04:07;48.83;;;27.45;;
36351;SDS011;22382;44.768;17.206;2023-04-01T23:06:47;50.90;;;28.08;;
36351;SDS011;22382;44.768;17.206;2023-04-01T23:09:28;50.40;;;28.98;;
36351;SDS011;22382;44.768;17.206;2023-04-01T23:12:04;46.45;;;27.90;;
36351;SDS011;22382;44.768;17.206;2023-04-01T23:20:02;46.70;;;26.15;;
36351;SDS011;22382;44.768;17.206;2023-04-01T23:23:06;51.20;;;27.02;;
36351;SDS011;22382;44.768;17.206;2023-04-01T23:26:04;50.95;;;27.77;;
36351;SDS011;22382;44.768;17.206;2023-04-01T23:28:54;54.92;;;27.92;;
36351;SDS011;22382;44.768;17.206;2023-04-01T23:36:56;44.47;;;26.08;;
36351;SDS011;22382;44.768;17.206;2023-04-01T23:39:42;46.00;;;26.35;;
36351;SDS011;22382;44.768;17.206;2023-04-01T23:44:53;46.47;;;25.92;;
36351;SDS011;22382;44.768;17.206;2023-04-01T23:47:35;41.38;;;24.38;;
36351;SDS011;22382;44.768;17.206;2023-04-01T23:50:16;47.67;;;24.35;;
36351;SDS011;22382;44.768;17.206;2023-04-01T23:53:11;44.78;;;22.75;;
36351;SDS011;22382;44.768;17.206;2023-04-01T23:55:51;43.97;;;24.83;;
36351;SDS011;22382;44.768;17.206;2023-04-01T23:58:45;42.90;;;24.38;;
